PIA701 OPIS-EGCC
Flight info
| Callsign | PIA701 |
|---|---|
| Flight time | N/A |
| Altitude | 36000 |
| Route | KALMI J139 NONIB L509 TAPIS M875 AMDAR/K0891F360 M161 ODIVA L162 TUKNA/K0895F380 L162 URUSU N984 RULEN T822 UNANI T173 ALOPU T822 SOTIS P35 RUDAM/N0495F380 DCT ABLOP/N0495F400 DCT OBEMU DCT ETUVA DCT NISUS DCT VAKOL DCT IPNIK DCT AMKUX DCT BEREP DCT BUDON DCT ALASO DCT TILNI |
| Aircraft | B772/H-SDE2E3FGHIJ5LORVWXY/LB1D1 |
Departure
| Time | 2026-04-25 23:39 |
|---|---|
| Airport | Islamabad International Airport (OPIS) |
Arrival
| Time | N/A |
|---|---|
| Airport | Manchester Airport (EGCC) |
| Time | Latitude | Longitude | Altitude | Speed | Heading |
|---|---|---|---|---|---|
| 2026-04-25 23:18 | 33.55606 | 72.83143 | 1774 ft | 0 kts | 120° |
| 2026-04-25 23:23 | 33.55608 | 72.83139 | 1776 ft | 2 kts | 120° |
| 2026-04-25 23:24 | 33.55618 | 72.83120 | 1775 ft | 3 kts | 127° |
| 2026-04-25 23:24 | 33.55631 | 72.83102 | 1773 ft | 3 kts | 138° |
| 2026-04-25 23:24 | 33.55647 | 72.83088 | 1773 ft | 3 kts | 155° |
| 2026-04-25 23:24 | 33.55664 | 72.83081 | 1773 ft | 3 kts | 190° |
| 2026-04-25 23:25 | 33.55675 | 72.83086 | 1774 ft | 1 kts | 220° |
| 2026-04-25 23:29 | 33.55667 | 72.83077 | 1773 ft | 4 kts | 220° |
| 2026-04-25 23:30 | 33.55639 | 72.83042 | 1779 ft | 8 kts | 232° |
| 2026-04-25 23:30 | 33.55600 | 72.82977 | 1778 ft | 11 kts | 235° |
| 2026-04-25 23:30 | 33.55550 | 72.82889 | 1778 ft | 14 kts | 235° |
| 2026-04-25 23:30 | 33.55498 | 72.82799 | 1778 ft | 14 kts | 235° |
| 2026-04-25 23:31 | 33.55442 | 72.82702 | 1778 ft | 14 kts | 235° |
| 2026-04-25 23:31 | 33.55373 | 72.82626 | 1775 ft | 14 kts | 197° |
| 2026-04-25 23:31 | 33.55279 | 72.82605 | 1775 ft | 14 kts | 190° |
| 2026-04-25 23:31 | 33.55203 | 72.82612 | 1777 ft | 11 kts | 130° |
| 2026-04-25 23:32 | 33.55177 | 72.82696 | 1775 ft | 11 kts | 102° |
| 2026-04-25 23:32 | 33.55164 | 72.82784 | 1776 ft | 11 kts | 99° |
| 2026-04-25 23:32 | 33.55151 | 72.82872 | 1776 ft | 11 kts | 100° |
| 2026-04-25 23:32 | 33.55137 | 72.82960 | 1774 ft | 11 kts | 100° |
| 2026-04-25 23:33 | 33.55124 | 72.83048 | 1776 ft | 11 kts | 100° |
| 2026-04-25 23:33 | 33.55111 | 72.83130 | 1774 ft | 11 kts | 100° |
| 2026-04-25 23:33 | 33.55098 | 72.83218 | 1776 ft | 11 kts | 100° |
| 2026-04-25 23:33 | 33.55084 | 72.83305 | 1775 ft | 11 kts | 100° |
| 2026-04-25 23:34 | 33.55074 | 72.83372 | 1775 ft | 11 kts | 100° |
| 2026-04-25 23:34 | 33.55067 | 72.83417 | 1776 ft | 11 kts | 100° |
| 2026-04-25 23:34 | 33.55053 | 72.83506 | 1776 ft | 11 kts | 100° |
| 2026-04-25 23:34 | 33.55040 | 72.83594 | 1773 ft | 11 kts | 101° |
| 2026-04-25 23:35 | 33.55026 | 72.83681 | 1775 ft | 11 kts | 101° |
| 2026-04-25 23:35 | 33.55012 | 72.83768 | 1775 ft | 11 kts | 101° |
| 2026-04-25 23:35 | 33.54999 | 72.83857 | 1775 ft | 11 kts | 100° |
| 2026-04-25 23:35 | 33.54986 | 72.83945 | 1775 ft | 11 kts | 100° |
| 2026-04-25 23:36 | 33.54973 | 72.84033 | 1773 ft | 11 kts | 100° |
| 2026-04-25 23:36 | 33.54963 | 72.84093 | 1776 ft | 11 kts | 100° |
| 2026-04-25 23:36 | 33.54945 | 72.84210 | 1774 ft | 11 kts | 100° |
| 2026-04-25 23:36 | 33.54932 | 72.84299 | 1775 ft | 11 kts | 100° |
| 2026-04-25 23:37 | 33.54918 | 72.84387 | 1775 ft | 11 kts | 100° |
| 2026-04-25 23:37 | 33.54871 | 72.84442 | 1776 ft | 11 kts | 179° |
| 2026-04-25 23:37 | 33.54795 | 72.84427 | 1772 ft | 12 kts | 191° |
| 2026-04-25 23:37 | 33.54727 | 72.84385 | 1770 ft | 12 kts | 249° |
| 2026-04-25 23:38 | 33.54730 | 72.84310 | 1770 ft | 4 kts | 281° |
| 2026-04-25 23:38 | 33.54735 | 72.84274 | 1768 ft | 4 kts | 280° |
| 2026-04-25 23:38 | 33.54742 | 72.84231 | 1768 ft | 11 kts | 280° |
| 2026-04-25 23:38 | 33.54778 | 72.83982 | 1770 ft | 63 kts | 280° |
| 2026-04-25 23:39 | 33.54918 | 72.83097 | 1771 ft | 147 kts | 282° |
| 2026-04-25 23:39 | 33.55147 | 72.81665 | 1916 ft | 199 kts | 280° |
| 2026-04-25 23:39 | 33.55339 | 72.80541 | 2459 ft | 206 kts | 282° |
| 2026-04-25 23:40 | 33.55558 | 72.79121 | 3139 ft | 216 kts | 284° |
| 2026-04-25 23:40 | 33.55833 | 72.77328 | 4037 ft | 221 kts | 284° |
| 2026-04-25 23:40 | 33.56114 | 72.75499 | 4635 ft | 225 kts | 283° |
| 2026-04-25 23:41 | 33.56286 | 72.73623 | 5068 ft | 232 kts | 266° |
| 2026-04-25 23:41 | 33.55653 | 72.71803 | 5428 ft | 253 kts | 230° |
| 2026-04-25 23:41 | 33.54388 | 72.70236 | 5593 ft | 270 kts | 236° |
| 2026-04-25 23:41 | 33.53767 | 72.68119 | 5986 ft | 274 kts | 273° |
| 2026-04-25 23:42 | 33.53971 | 72.65838 | 6478 ft | 277 kts | 280° |
| 2026-04-25 23:42 | 33.54188 | 72.63524 | 7144 ft | 281 kts | 277° |
| 2026-04-25 23:42 | 33.54328 | 72.61187 | 7936 ft | 280 kts | 276° |
| 2026-04-25 23:42 | 33.54423 | 72.58856 | 8744 ft | 278 kts | 275° |
| 2026-04-25 23:43 | 33.54490 | 72.56542 | 9549 ft | 278 kts | 274° |
| 2026-04-25 23:43 | 33.54542 | 72.54209 | 10229 ft | 283 kts | 274° |
| 2026-04-25 23:43 | 33.54588 | 72.51784 | 10512 ft | 302 kts | 274° |
| 2026-04-25 23:43 | 33.54630 | 72.49208 | 10678 ft | 324 kts | 273° |
| 2026-04-25 23:44 | 33.54668 | 72.46380 | 10839 ft | 346 kts | 273° |
| 2026-04-25 23:44 | 33.54706 | 72.43451 | 11144 ft | 363 kts | 273° |
| 2026-04-25 23:44 | 33.54739 | 72.40390 | 11702 ft | 372 kts | 272° |
| 2026-04-25 23:44 | 33.54753 | 72.37259 | 12392 ft | 376 kts | 272° |
| 2026-04-25 23:45 | 33.54758 | 72.34120 | 13136 ft | 379 kts | 271° |
| 2026-04-25 23:45 | 33.54762 | 72.30942 | 13844 ft | 382 kts | 271° |
| 2026-04-25 23:45 | 33.54767 | 72.27753 | 14467 ft | 384 kts | 271° |
| 2026-04-25 23:45 | 33.54773 | 72.24532 | 15082 ft | 387 kts | 271° |
| 2026-04-25 23:46 | 33.54778 | 72.21292 | 15684 ft | 390 kts | 271° |
| 2026-04-25 23:46 | 33.54784 | 72.18029 | 16266 ft | 393 kts | 271° |
| 2026-04-25 23:46 | 33.54789 | 72.14729 | 16856 ft | 396 kts | 271° |
| 2026-04-25 23:46 | 33.54793 | 72.11406 | 17415 ft | 399 kts | 271° |
| 2026-04-25 23:47 | 33.54797 | 72.08067 | 17986 ft | 402 kts | 271° |
| 2026-04-25 23:47 | 33.54800 | 72.04701 | 18480 ft | 405 kts | 271° |
| 2026-04-25 23:47 | 33.54780 | 72.01296 | 18960 ft | 408 kts | 269° |
| 2026-04-25 23:47 | 33.54610 | 71.97902 | 19422 ft | 410 kts | 266° |
| 2026-04-25 23:48 | 33.54362 | 71.94432 | 19885 ft | 413 kts | 266° |
| 2026-04-25 23:48 | 33.54128 | 71.91033 | 20330 ft | 415 kts | 267° |
| 2026-04-25 23:48 | 33.53922 | 71.87709 | 20714 ft | 419 kts | 267° |
| 2026-04-25 23:48 | 33.53715 | 71.84215 | 21137 ft | 422 kts | 267° |
| 2026-04-25 23:49 | 33.53508 | 71.80657 | 21597 ft | 424 kts | 268° |
| 2026-04-25 23:49 | 33.53304 | 71.77129 | 22042 ft | 426 kts | 268° |
| 2026-04-25 23:49 | 33.53097 | 71.73574 | 22475 ft | 428 kts | 268° |
| 2026-04-25 23:49 | 33.52890 | 71.70046 | 22891 ft | 431 kts | 268° |
| 2026-04-25 23:50 | 33.52675 | 71.66407 | 23299 ft | 434 kts | 268° |
| 2026-04-25 23:50 | 33.52464 | 71.62838 | 23657 ft | 436 kts | 268° |
| 2026-04-25 23:50 | 33.52245 | 71.59158 | 24028 ft | 437 kts | 268° |
| 2026-04-25 23:50 | 33.52027 | 71.55524 | 24420 ft | 438 kts | 268° |
| 2026-04-25 23:51 | 33.51807 | 71.51879 | 24820 ft | 438 kts | 268° |
| 2026-04-25 23:51 | 33.51588 | 71.48279 | 25198 ft | 440 kts | 268° |
| 2026-04-25 23:51 | 33.51362 | 71.44575 | 25558 ft | 441 kts | 268° |
| 2026-04-25 23:51 | 33.51140 | 71.40948 | 25902 ft | 443 kts | 268° |
| 2026-04-25 23:52 | 33.50914 | 71.37261 | 26255 ft | 445 kts | 268° |
| 2026-04-25 23:52 | 33.50685 | 71.33562 | 26595 ft | 447 kts | 268° |
| 2026-04-25 23:52 | 33.50456 | 71.29837 | 26900 ft | 449 kts | 268° |
| 2026-04-25 23:52 | 33.50223 | 71.26102 | 27259 ft | 450 kts | 268° |
| 2026-04-25 23:53 | 33.49986 | 71.22354 | 27622 ft | 450 kts | 268° |
| 2026-04-25 23:53 | 33.49750 | 71.18621 | 27968 ft | 452 kts | 268° |
| 2026-04-25 23:53 | 33.49512 | 71.14847 | 28256 ft | 454 kts | 268° |
| 2026-04-25 23:53 | 33.49273 | 71.11073 | 28558 ft | 455 kts | 268° |
| 2026-04-25 23:54 | 33.49037 | 71.07291 | 28867 ft | 454 kts | 269° |
| 2026-04-25 23:54 | 33.49236 | 71.03554 | 28928 ft | 454 kts | 284° |
| 2026-04-25 23:54 | 33.50319 | 70.99998 | 29160 ft | 456 kts | 296° |
| 2026-04-25 23:54 | 33.51981 | 70.96759 | 29463 ft | 457 kts | 307° |
| 2026-04-25 23:55 | 33.54168 | 70.93997 | 29721 ft | 459 kts | 315° |
| 2026-04-25 23:55 | 33.56534 | 70.91405 | 29953 ft | 460 kts | 316° |
| 2026-04-25 23:55 | 33.58901 | 70.88840 | 30246 ft | 460 kts | 316° |
| 2026-04-25 23:55 | 33.61272 | 70.86253 | 30538 ft | 460 kts | 315° |
| 2026-04-25 23:56 | 33.63622 | 70.83655 | 30816 ft | 459 kts | 315° |
| 2026-04-25 23:56 | 33.65931 | 70.81074 | 31102 ft | 458 kts | 315° |
| 2026-04-25 23:56 | 33.68282 | 70.78424 | 31417 ft | 457 kts | 315° |
| 2026-04-25 23:56 | 33.70594 | 70.75807 | 31704 ft | 456 kts | 315° |
| 2026-04-25 23:57 | 33.72894 | 70.73200 | 32118 ft | 453 kts | 314° |
| 2026-04-25 23:57 | 33.75180 | 70.70607 | 32478 ft | 451 kts | 314° |
| 2026-04-25 23:57 | 33.77460 | 70.68021 | 32761 ft | 451 kts | 314° |
| 2026-04-25 23:57 | 33.79712 | 70.65464 | 33013 ft | 451 kts | 315° |
| 2026-04-25 23:58 | 33.81992 | 70.62874 | 33285 ft | 450 kts | 315° |
| 2026-04-25 23:58 | 33.84266 | 70.60289 | 33575 ft | 450 kts | 315° |
| 2026-04-25 23:58 | 33.86536 | 70.57709 | 33857 ft | 449 kts | 314° |
| 2026-04-25 23:58 | 33.88809 | 70.55122 | 34137 ft | 448 kts | 314° |
| 2026-04-25 23:59 | 33.91008 | 70.52478 | 34364 ft | 446 kts | 309° |
| 2026-04-25 23:59 | 33.92960 | 70.49596 | 34621 ft | 444 kts | 305° |
| 2026-04-25 23:59 | 33.94729 | 70.46572 | 34955 ft | 440 kts | 301° |
| 2026-04-25 23:59 | 33.96280 | 70.43403 | 35187 ft | 438 kts | 297° |
| 2026-04-26 00:00 | 33.97724 | 70.40111 | 35382 ft | 438 kts | 297° |
| 2026-04-26 00:00 | 33.99119 | 70.36903 | 35635 ft | 437 kts | 296° |
| 2026-04-26 00:00 | 34.00523 | 70.33672 | 35898 ft | 436 kts | 297° |
| 2026-04-26 00:01 | 34.03355 | 70.27186 | 36009 ft | 432 kts | 297° |
| 2026-04-26 00:01 | 34.04732 | 70.24045 | 36001 ft | 416 kts | 297° |
| 2026-04-26 00:01 | 34.06059 | 70.21022 | 35992 ft | 401 kts | 297° |
| 2026-04-26 00:02 | 34.08666 | 70.15083 | 36032 ft | 402 kts | 296° |
| 2026-04-26 00:02 | 34.11293 | 70.09065 | 36018 ft | 400 kts | 296° |
| 2026-04-26 00:03 | 34.13866 | 70.03174 | 36035 ft | 395 kts | 296° |
| 2026-04-26 00:03 | 34.16413 | 69.97331 | 36032 ft | 396 kts | 296° |
| 2026-04-26 00:04 | 34.18977 | 69.91433 | 36062 ft | 398 kts | 296° |
| 2026-04-26 00:04 | 34.21561 | 69.85455 | 36035 ft | 399 kts | 295° |
| 2026-04-26 00:05 | 34.24134 | 69.79502 | 36051 ft | 401 kts | 295° |
| 2026-04-26 00:05 | 34.26712 | 69.73520 | 36053 ft | 400 kts | 295° |
| 2026-04-26 00:06 | 34.29263 | 69.67589 | 36052 ft | 400 kts | 295° |
| 2026-04-26 00:06 | 34.31831 | 69.61610 | 36062 ft | 400 kts | 295° |
| 2026-04-26 00:07 | 34.34392 | 69.55641 | 36055 ft | 399 kts | 295° |
| 2026-04-26 00:07 | 34.36941 | 69.49687 | 36070 ft | 398 kts | 295° |
| 2026-04-26 00:08 | 34.39486 | 69.43732 | 36055 ft | 398 kts | 295° |
| 2026-04-26 00:08 | 34.42025 | 69.37779 | 36075 ft | 398 kts | 295° |
| 2026-04-26 00:09 | 34.44563 | 69.31818 | 36091 ft | 398 kts | 295° |
| 2026-04-26 00:09 | 34.47105 | 69.25839 | 36088 ft | 399 kts | 295° |
| 2026-04-26 00:10 | 34.49653 | 69.19855 | 36077 ft | 399 kts | 297° |
| 2026-04-26 00:10 | 34.51238 | 69.17077 | 36082 ft | 403 kts | 308° |
| 2026-04-26 00:10 | 34.53165 | 69.14706 | 36080 ft | 407 kts | 314° |
| 2026-04-26 00:11 | 34.57874 | 69.10854 | 36119 ft | 416 kts | 326° |
| 2026-04-26 00:11 | 34.63026 | 69.07596 | 36098 ft | 418 kts | 327° |
| 2026-04-26 00:12 | 34.68201 | 69.04320 | 36102 ft | 420 kts | 326° |
| 2026-04-26 00:12 | 34.73411 | 69.00974 | 36107 ft | 421 kts | 326° |
| 2026-04-26 00:13 | 34.78554 | 68.97646 | 36126 ft | 421 kts | 326° |
| 2026-04-26 00:13 | 34.83731 | 68.94283 | 36123 ft | 421 kts | 326° |
| 2026-04-26 00:14 | 34.88910 | 68.90919 | 36131 ft | 422 kts | 326° |
| 2026-04-26 00:14 | 34.94060 | 68.87569 | 36127 ft | 418 kts | 326° |
| 2026-04-26 00:15 | 34.99182 | 68.84229 | 36174 ft | 416 kts | 326° |
| 2026-04-26 00:15 | 35.03456 | 68.81433 | 36185 ft | 416 kts | 326° |
| 2026-04-26 00:16 | 35.08527 | 68.78122 | 36196 ft | 416 kts | 325° |
| 2026-04-26 00:16 | 35.13622 | 68.74787 | 36212 ft | 416 kts | 326° |
| 2026-04-26 00:17 | 35.18742 | 68.71427 | 36205 ft | 418 kts | 325° |
| 2026-04-26 00:17 | 35.23860 | 68.68068 | 36208 ft | 417 kts | 325° |
| 2026-04-26 00:18 | 35.28978 | 68.64703 | 36216 ft | 418 kts | 326° |
| 2026-04-26 00:18 | 35.34093 | 68.61343 | 36204 ft | 417 kts | 326° |
| 2026-04-26 00:19 | 35.39199 | 68.57971 | 36180 ft | 417 kts | 326° |
| 2026-04-26 00:19 | 35.44306 | 68.54597 | 36194 ft | 417 kts | 326° |
| 2026-04-26 00:20 | 35.49411 | 68.51220 | 36155 ft | 417 kts | 326° |
| 2026-04-26 00:20 | 35.54516 | 68.47839 | 36150 ft | 416 kts | 326° |
| 2026-04-26 00:21 | 35.59614 | 68.44459 | 36151 ft | 417 kts | 326° |
| 2026-04-26 00:21 | 35.64720 | 68.41054 | 36140 ft | 417 kts | 326° |
| 2026-04-26 00:22 | 35.69824 | 68.37632 | 36139 ft | 419 kts | 325° |
| 2026-04-26 00:22 | 35.74944 | 68.34192 | 36127 ft | 420 kts | 325° |
| 2026-04-26 00:23 | 35.80078 | 68.30742 | 36140 ft | 421 kts | 325° |
| 2026-04-26 00:23 | 35.85213 | 68.27285 | 36138 ft | 419 kts | 325° |
| 2026-04-26 00:24 | 35.90316 | 68.23850 | 36112 ft | 416 kts | 325° |
| 2026-04-26 00:24 | 35.95382 | 68.20436 | 36121 ft | 413 kts | 325° |
| 2026-04-26 00:25 | 36.00420 | 68.17030 | 36111 ft | 412 kts | 324° |
| 2026-04-26 00:25 | 36.05411 | 68.13650 | 36105 ft | 411 kts | 324° |
| 2026-04-26 00:26 | 36.10429 | 68.10246 | 36107 ft | 412 kts | 324° |
| 2026-04-26 00:26 | 36.15465 | 68.06826 | 36109 ft | 414 kts | 324° |
| 2026-04-26 00:27 | 36.20529 | 68.03381 | 36083 ft | 416 kts | 324° |
| 2026-04-26 00:27 | 36.25595 | 67.99934 | 36079 ft | 416 kts | 324° |
| 2026-04-26 00:28 | 36.30683 | 67.96466 | 36062 ft | 416 kts | 324° |
| 2026-04-26 00:28 | 36.35755 | 67.93002 | 36084 ft | 417 kts | 324° |
| 2026-04-26 00:29 | 36.40838 | 67.89525 | 36059 ft | 417 kts | 324° |
| 2026-04-26 00:29 | 36.45910 | 67.86052 | 36025 ft | 415 kts | 324° |
| 2026-04-26 00:30 | 36.50964 | 67.82584 | 36026 ft | 414 kts | 324° |
| 2026-04-26 00:30 | 36.56023 | 67.79109 | 36047 ft | 412 kts | 324° |
| 2026-04-26 00:31 | 36.61035 | 67.75660 | 36027 ft | 411 kts | 324° |
| 2026-04-26 00:31 | 36.66041 | 67.72208 | 36031 ft | 411 kts | 324° |
| 2026-04-26 00:32 | 36.71035 | 67.68762 | 36012 ft | 410 kts | 324° |
| 2026-04-26 00:32 | 36.78487 | 67.63631 | 36002 ft | 409 kts | 324° |
| 2026-04-26 00:33 | 36.83466 | 67.60202 | 36014 ft | 408 kts | 324° |
| 2026-04-26 00:33 | 36.88440 | 67.56769 | 36007 ft | 409 kts | 324° |
| 2026-04-26 00:34 | 36.93422 | 67.53325 | 36008 ft | 410 kts | 323° |
| 2026-04-26 00:34 | 36.98456 | 67.49838 | 35997 ft | 411 kts | 323° |
| 2026-04-26 00:35 | 37.03436 | 67.46384 | 35991 ft | 413 kts | 323° |
| 2026-04-26 00:35 | 37.08461 | 67.42895 | 35989 ft | 413 kts | 323° |
| 2026-04-26 00:36 | 37.13521 | 67.39375 | 36004 ft | 413 kts | 323° |
| 2026-04-26 00:36 | 37.18557 | 67.35867 | 35989 ft | 413 kts | 323° |
| 2026-04-26 00:37 | 37.23727 | 67.32655 | 35991 ft | 417 kts | 328° |
| 2026-04-26 00:37 | 37.29039 | 67.29810 | 35991 ft | 416 kts | 329° |
| 2026-04-26 00:38 | 37.34353 | 67.26952 | 36009 ft | 415 kts | 328° |
| 2026-04-26 00:38 | 37.39655 | 67.24080 | 35996 ft | 414 kts | 328° |
| 2026-04-26 00:39 | 37.44946 | 67.21202 | 35986 ft | 414 kts | 328° |
| 2026-04-26 00:39 | 37.50245 | 67.18312 | 36003 ft | 414 kts | 328° |
| 2026-04-26 00:40 | 37.55536 | 67.15421 | 36011 ft | 417 kts | 328° |
| 2026-04-26 00:40 | 37.60879 | 67.12497 | 36022 ft | 420 kts | 328° |
| 2026-04-26 00:41 | 37.66249 | 67.09556 | 36028 ft | 422 kts | 328° |
| 2026-04-26 00:41 | 37.71661 | 67.06588 | 36026 ft | 424 kts | 328° |
| 2026-04-26 00:42 | 37.77070 | 67.03617 | 36045 ft | 425 kts | 328° |
| 2026-04-26 00:42 | 37.82500 | 67.00630 | 36059 ft | 425 kts | 328° |
| 2026-04-26 00:43 | 37.87887 | 66.97663 | 36057 ft | 425 kts | 328° |
| 2026-04-26 00:43 | 37.93300 | 66.94676 | 36093 ft | 424 kts | 328° |
| 2026-04-26 00:44 | 37.98695 | 66.91693 | 36085 ft | 422 kts | 328° |
| 2026-04-26 00:44 | 38.04072 | 66.88716 | 36088 ft | 421 kts | 328° |
| 2026-04-26 00:45 | 38.08545 | 66.86234 | 36089 ft | 422 kts | 328° |
| 2026-04-26 00:45 | 38.14841 | 66.82733 | 36101 ft | 423 kts | 328° |
| 2026-04-26 00:46 | 38.20250 | 66.79722 | 36104 ft | 425 kts | 328° |
| 2026-04-26 00:46 | 38.25670 | 66.76703 | 36097 ft | 426 kts | 327° |
| 2026-04-26 00:47 | 38.31064 | 66.73691 | 36086 ft | 426 kts | 328° |
| 2026-04-26 00:47 | 38.36508 | 66.70645 | 36088 ft | 428 kts | 328° |
| 2026-04-26 00:48 | 38.41969 | 66.67587 | 36082 ft | 429 kts | 328° |
| 2026-04-26 00:48 | 38.47445 | 66.64515 | 36066 ft | 429 kts | 328° |
| 2026-04-26 00:49 | 38.52908 | 66.61445 | 36050 ft | 430 kts | 328° |
| 2026-04-26 00:49 | 38.58377 | 66.58366 | 36046 ft | 429 kts | 328° |
| 2026-04-26 00:50 | 38.63847 | 66.55282 | 36041 ft | 428 kts | 328° |
| 2026-04-26 00:50 | 38.69301 | 66.52200 | 36043 ft | 428 kts | 328° |
| 2026-04-26 00:51 | 38.74714 | 66.49137 | 36014 ft | 429 kts | 327° |
| 2026-04-26 00:51 | 38.80160 | 66.46027 | 36013 ft | 429 kts | 327° |
| 2026-04-26 00:52 | 38.85640 | 66.42877 | 36007 ft | 429 kts | 327° |
| 2026-04-26 00:52 | 38.91061 | 66.39756 | 36011 ft | 429 kts | 327° |
| 2026-04-26 00:53 | 38.96516 | 66.36614 | 35995 ft | 430 kts | 327° |
| 2026-04-26 00:53 | 39.01983 | 66.33460 | 35996 ft | 430 kts | 327° |
| 2026-04-26 00:54 | 39.07439 | 66.30308 | 36024 ft | 430 kts | 327° |
| 2026-04-26 00:54 | 39.12913 | 66.27138 | 36001 ft | 431 kts | 327° |
| 2026-04-26 00:55 | 39.18391 | 66.23962 | 35986 ft | 432 kts | 327° |
| 2026-04-26 00:55 | 39.23873 | 66.20778 | 35992 ft | 432 kts | 327° |
| 2026-04-26 00:56 | 39.29363 | 66.17584 | 36004 ft | 433 kts | 327° |
| 2026-04-26 00:56 | 39.34847 | 66.14387 | 36000 ft | 433 kts | 327° |
| 2026-04-26 00:57 | 39.39415 | 66.11721 | 35996 ft | 433 kts | 327° |
| 2026-04-26 00:57 | 39.44911 | 66.08507 | 36012 ft | 433 kts | 328° |
| 2026-04-26 00:58 | 39.50398 | 66.05293 | 36013 ft | 433 kts | 327° |
| 2026-04-26 00:58 | 39.55884 | 66.02073 | 36016 ft | 433 kts | 327° |
| 2026-04-26 00:59 | 39.61384 | 65.98840 | 35996 ft | 434 kts | 328° |
| 2026-04-26 00:59 | 39.66901 | 65.95597 | 36013 ft | 435 kts | 328° |
| 2026-04-26 01:00 | 39.72428 | 65.92348 | 36009 ft | 437 kts | 328° |
| 2026-04-26 01:00 | 39.77972 | 65.89083 | 36016 ft | 438 kts | 328° |
| 2026-04-26 01:01 | 39.83545 | 65.85794 | 36021 ft | 440 kts | 328° |
| 2026-04-26 01:01 | 39.89133 | 65.82489 | 36016 ft | 442 kts | 328° |
| 2026-04-26 01:02 | 39.94700 | 65.79192 | 36012 ft | 442 kts | 328° |
| 2026-04-26 01:02 | 40.00305 | 65.75867 | 36029 ft | 442 kts | 327° |
| 2026-04-26 01:03 | 40.05940 | 65.72518 | 36005 ft | 442 kts | 327° |
| 2026-04-26 01:03 | 40.11540 | 65.69183 | 36007 ft | 441 kts | 327° |
| 2026-04-26 01:04 | 40.17113 | 65.65857 | 36002 ft | 440 kts | 327° |
| 2026-04-26 01:04 | 40.22684 | 65.62526 | 36005 ft | 440 kts | 327° |
| 2026-04-26 01:05 | 40.28251 | 65.59191 | 36000 ft | 440 kts | 327° |
| 2026-04-26 01:05 | 40.33822 | 65.55849 | 35982 ft | 440 kts | 327° |
| 2026-04-26 01:06 | 40.39358 | 65.52518 | 35971 ft | 440 kts | 327° |
| 2026-04-26 01:06 | 40.44929 | 65.49158 | 35982 ft | 440 kts | 327° |
| 2026-04-26 01:07 | 40.50501 | 65.45790 | 35975 ft | 441 kts | 327° |
| 2026-04-26 01:07 | 40.56081 | 65.42410 | 35975 ft | 442 kts | 327° |
| 2026-04-26 01:08 | 40.61683 | 65.39012 | 35975 ft | 444 kts | 327° |
| 2026-04-26 01:08 | 40.67295 | 65.35602 | 35968 ft | 445 kts | 327° |
| 2026-04-26 01:09 | 40.72914 | 65.32182 | 35982 ft | 445 kts | 327° |
| 2026-04-26 01:09 | 40.78542 | 65.28750 | 35962 ft | 445 kts | 327° |
| 2026-04-26 01:10 | 40.84155 | 65.25321 | 35965 ft | 444 kts | 327° |
| 2026-04-26 01:10 | 40.89756 | 65.21892 | 35984 ft | 443 kts | 327° |
| 2026-04-26 01:11 | 40.95344 | 65.18463 | 35965 ft | 443 kts | 327° |
| 2026-04-26 01:11 | 41.00930 | 65.15030 | 35970 ft | 441 kts | 327° |
| 2026-04-26 01:12 | 41.06499 | 65.11601 | 35978 ft | 440 kts | 327° |
| 2026-04-26 01:12 | 41.12054 | 65.08172 | 35975 ft | 440 kts | 327° |
| 2026-04-26 01:13 | 41.17598 | 65.04746 | 35976 ft | 440 kts | 327° |
| 2026-04-26 01:13 | 41.23155 | 65.01301 | 36000 ft | 441 kts | 327° |
| 2026-04-26 01:14 | 41.28716 | 64.97839 | 35987 ft | 442 kts | 327° |
| 2026-04-26 01:14 | 41.34293 | 64.94360 | 35981 ft | 443 kts | 327° |
| 2026-04-26 01:15 | 41.39861 | 64.90882 | 36003 ft | 445 kts | 327° |
| 2026-04-26 01:15 | 41.45480 | 64.87364 | 35987 ft | 447 kts | 327° |
| 2026-04-26 01:16 | 41.51119 | 64.83829 | 35984 ft | 448 kts | 327° |
| 2026-04-26 01:16 | 41.56804 | 64.80259 | 36000 ft | 449 kts | 327° |
| 2026-04-26 01:17 | 41.62439 | 64.76712 | 35984 ft | 450 kts | 327° |
| 2026-04-26 01:17 | 41.68094 | 64.73146 | 35987 ft | 450 kts | 327° |
| 2026-04-26 01:18 | 41.73753 | 64.69570 | 36004 ft | 450 kts | 326° |
| 2026-04-26 01:18 | 41.79411 | 64.65989 | 35991 ft | 449 kts | 326° |
| 2026-04-26 01:19 | 41.85061 | 64.62405 | 35982 ft | 448 kts | 326° |
| 2026-04-26 01:19 | 41.90686 | 64.58831 | 36010 ft | 446 kts | 326° |
| 2026-04-26 01:20 | 41.96290 | 64.55261 | 35988 ft | 445 kts | 326° |
| 2026-04-26 01:20 | 42.01880 | 64.51693 | 35981 ft | 445 kts | 326° |
| 2026-04-26 01:21 | 42.07427 | 64.48147 | 36015 ft | 443 kts | 326° |
| 2026-04-26 01:21 | 42.12998 | 64.44577 | 36005 ft | 443 kts | 326° |
| 2026-04-26 01:22 | 42.18565 | 64.41003 | 35999 ft | 443 kts | 326° |
| 2026-04-26 01:22 | 42.24125 | 64.37427 | 35999 ft | 443 kts | 326° |
| 2026-04-26 01:23 | 42.29690 | 64.33840 | 36005 ft | 443 kts | 326° |
| 2026-04-26 01:23 | 42.35250 | 64.30249 | 36004 ft | 443 kts | 326° |
| 2026-04-26 01:24 | 42.40819 | 64.26646 | 36031 ft | 444 kts | 326° |
| 2026-04-26 01:24 | 42.46394 | 64.23031 | 36013 ft | 445 kts | 326° |
| 2026-04-26 01:25 | 42.51975 | 64.19405 | 36009 ft | 445 kts | 326° |
| 2026-04-26 01:25 | 42.57568 | 64.15766 | 36036 ft | 446 kts | 326° |
| 2026-04-26 01:26 | 42.63215 | 64.12218 | 36024 ft | 449 kts | 328° |
| 2026-04-26 01:26 | 42.68970 | 64.08882 | 36013 ft | 449 kts | 328° |
| 2026-04-26 01:27 | 42.74726 | 64.05550 | 36048 ft | 449 kts | 328° |
| 2026-04-26 01:27 | 42.80458 | 64.02186 | 36037 ft | 449 kts | 328° |
| 2026-04-26 01:28 | 42.86177 | 63.98803 | 36017 ft | 447 kts | 328° |
| 2026-04-26 01:28 | 42.91872 | 63.95424 | 36048 ft | 446 kts | 328° |
| 2026-04-26 01:29 | 42.97556 | 63.92045 | 36026 ft | 445 kts | 327° |
| 2026-04-26 01:29 | 43.03194 | 63.88687 | 36024 ft | 444 kts | 327° |
| 2026-04-26 01:30 | 43.08888 | 63.85289 | 36061 ft | 443 kts | 327° |
| 2026-04-26 01:30 | 43.14546 | 63.81905 | 36034 ft | 443 kts | 327° |
| 2026-04-26 01:31 | 43.20166 | 63.78538 | 36037 ft | 443 kts | 327° |
| 2026-04-26 01:31 | 43.25821 | 63.75143 | 36080 ft | 443 kts | 327° |
| 2026-04-26 01:32 | 43.31480 | 63.71738 | 36053 ft | 444 kts | 327° |
| 2026-04-26 01:32 | 43.37140 | 63.68326 | 36048 ft | 444 kts | 327° |
| 2026-04-26 01:33 | 43.42804 | 63.64905 | 36097 ft | 444 kts | 327° |
| 2026-04-26 01:33 | 43.48451 | 63.61488 | 36063 ft | 442 kts | 327° |
| 2026-04-26 01:34 | 43.54060 | 63.58093 | 36049 ft | 439 kts | 327° |
| 2026-04-26 01:34 | 43.59632 | 63.54725 | 36055 ft | 436 kts | 327° |
| 2026-04-26 01:35 | 43.65173 | 63.51367 | 36068 ft | 435 kts | 326° |
| 2026-04-26 01:35 | 43.70706 | 63.48001 | 36058 ft | 434 kts | 326° |
| 2026-04-26 01:36 | 43.76236 | 63.44626 | 36075 ft | 434 kts | 326° |
| 2026-04-26 01:37 | 43.84553 | 63.39537 | 36070 ft | 437 kts | 326° |
| 2026-04-26 01:37 | 43.90125 | 63.36121 | 36061 ft | 438 kts | 326° |
| 2026-04-26 01:38 | 43.95700 | 63.32690 | 36068 ft | 439 kts | 326° |
| 2026-04-26 01:38 | 44.01257 | 63.29242 | 36070 ft | 440 kts | 326° |
| 2026-04-26 01:39 | 44.06851 | 63.25763 | 36069 ft | 440 kts | 326° |
| 2026-04-26 01:39 | 44.11541 | 63.22843 | 36072 ft | 440 kts | 326° |
| 2026-04-26 01:40 | 44.17140 | 63.19351 | 36084 ft | 441 kts | 326° |
| 2026-04-26 01:40 | 44.22734 | 63.15858 | 36072 ft | 440 kts | 326° |
| 2026-04-26 01:41 | 44.28316 | 63.12378 | 36076 ft | 438 kts | 326° |
| 2026-04-26 01:41 | 44.33870 | 63.08909 | 36075 ft | 437 kts | 326° |
| 2026-04-26 01:42 | 44.39416 | 63.05435 | 36076 ft | 436 kts | 326° |
| 2026-04-26 01:42 | 44.44973 | 63.01940 | 36340 ft | 440 kts | 326° |
| 2026-04-26 01:42 | 44.47760 | 63.00187 | 36696 ft | 438 kts | 326° |
| 2026-04-26 01:43 | 44.50505 | 62.98462 | 37117 ft | 437 kts | 326° |
| 2026-04-26 01:43 | 44.53276 | 62.96716 | 37385 ft | 437 kts | 326° |
| 2026-04-26 01:43 | 44.56053 | 62.94965 | 37709 ft | 436 kts | 326° |
| 2026-04-26 01:43 | 44.58814 | 62.93223 | 38012 ft | 436 kts | 326° |
| 2026-04-26 01:44 | 44.61592 | 62.91463 | 38046 ft | 440 kts | 326° |
| 2026-04-26 01:44 | 44.67174 | 62.87926 | 38101 ft | 439 kts | 326° |
| 2026-04-26 01:45 | 44.72700 | 62.84428 | 38092 ft | 434 kts | 326° |
| 2026-04-26 01:45 | 44.78184 | 62.80942 | 38086 ft | 432 kts | 326° |
| 2026-04-26 01:46 | 44.83646 | 62.77459 | 38090 ft | 430 kts | 326° |
| 2026-04-26 01:46 | 44.89103 | 62.73972 | 38105 ft | 431 kts | 326° |
| 2026-04-26 01:47 | 44.94584 | 62.70462 | 38104 ft | 433 kts | 326° |
| 2026-04-26 01:47 | 45.00096 | 62.66926 | 38098 ft | 436 kts | 326° |
| 2026-04-26 01:48 | 45.05628 | 62.63372 | 38139 ft | 438 kts | 326° |
| 2026-04-26 01:48 | 45.11191 | 62.59790 | 38105 ft | 439 kts | 326° |
| 2026-04-26 01:49 | 45.16741 | 62.56210 | 38086 ft | 438 kts | 326° |
| 2026-04-26 01:49 | 45.22279 | 62.52632 | 38090 ft | 436 kts | 326° |
| 2026-04-26 01:50 | 45.27798 | 62.49059 | 38100 ft | 435 kts | 326° |
| 2026-04-26 01:50 | 45.33257 | 62.45516 | 38091 ft | 434 kts | 326° |
| 2026-04-26 01:51 | 45.38737 | 62.41951 | 38093 ft | 433 kts | 326° |
| 2026-04-26 01:51 | 45.44210 | 62.38381 | 38106 ft | 433 kts | 326° |
| 2026-04-26 01:52 | 45.49730 | 62.34772 | 38104 ft | 435 kts | 326° |
| 2026-04-26 01:52 | 45.55239 | 62.31163 | 38106 ft | 437 kts | 326° |
| 2026-04-26 01:53 | 45.60768 | 62.27536 | 38116 ft | 438 kts | 326° |
| 2026-04-26 01:53 | 45.66328 | 62.23879 | 38101 ft | 441 kts | 326° |
| 2026-04-26 01:54 | 45.71873 | 62.20225 | 38102 ft | 442 kts | 326° |
| 2026-04-26 01:54 | 45.77507 | 62.16504 | 38099 ft | 443 kts | 326° |
| 2026-04-26 01:55 | 45.83070 | 62.12823 | 38103 ft | 443 kts | 326° |
| 2026-04-26 01:55 | 45.88766 | 62.09336 | 38099 ft | 446 kts | 329° |
| 2026-04-26 01:56 | 45.94521 | 62.06027 | 38101 ft | 444 kts | 329° |
| 2026-04-26 01:56 | 46.00248 | 62.02688 | 38110 ft | 443 kts | 329° |
| 2026-04-26 01:57 | 46.05936 | 61.99322 | 38097 ft | 442 kts | 329° |
| 2026-04-26 01:57 | 46.11624 | 61.95938 | 38103 ft | 442 kts | 329° |
| 2026-04-26 01:58 | 46.17302 | 61.92557 | 38103 ft | 442 kts | 329° |
| 2026-04-26 01:58 | 46.22966 | 61.89176 | 38109 ft | 445 kts | 329° |
| 2026-04-26 01:59 | 46.28745 | 61.85723 | 38109 ft | 447 kts | 329° |
| 2026-04-26 01:59 | 46.34513 | 61.82273 | 38109 ft | 449 kts | 329° |
| 2026-04-26 02:00 | 46.40264 | 61.78826 | 38134 ft | 451 kts | 330° |
| 2026-04-26 02:00 | 46.46035 | 61.75364 | 38091 ft | 446 kts | 330° |
| 2026-04-26 02:01 | 46.51750 | 61.71923 | 38098 ft | 443 kts | 330° |
| 2026-04-26 02:01 | 46.57441 | 61.68485 | 38139 ft | 442 kts | 330° |
| 2026-04-26 02:02 | 46.63125 | 61.65043 | 38102 ft | 442 kts | 330° |
| 2026-04-26 02:02 | 46.68800 | 61.61601 | 38093 ft | 442 kts | 330° |
| 2026-04-26 02:03 | 46.74469 | 61.58153 | 38095 ft | 442 kts | 330° |
| 2026-04-26 02:03 | 46.80142 | 61.54697 | 38099 ft | 442 kts | 330° |
| 2026-04-26 02:04 | 46.85818 | 61.51229 | 38092 ft | 442 kts | 330° |
| 2026-04-26 02:04 | 46.91483 | 61.47755 | 38087 ft | 442 kts | 330° |
| 2026-04-26 02:05 | 46.97152 | 61.44268 | 38133 ft | 442 kts | 330° |
| 2026-04-26 02:05 | 47.02825 | 61.40770 | 38093 ft | 442 kts | 330° |
| 2026-04-26 02:06 | 47.08499 | 61.37264 | 38084 ft | 442 kts | 330° |
| 2026-04-26 02:06 | 47.14171 | 61.33753 | 38085 ft | 442 kts | 330° |
| 2026-04-26 02:07 | 47.19841 | 61.30233 | 38099 ft | 442 kts | 330° |
| 2026-04-26 02:07 | 47.25503 | 61.26711 | 38088 ft | 442 kts | 330° |
| 2026-04-26 02:08 | 47.31168 | 61.23179 | 38084 ft | 442 kts | 330° |
| 2026-04-26 02:08 | 47.36828 | 61.19642 | 38082 ft | 441 kts | 330° |
| 2026-04-26 02:09 | 47.42486 | 61.16096 | 38095 ft | 442 kts | 330° |
| 2026-04-26 02:09 | 47.48153 | 61.12537 | 38091 ft | 441 kts | 330° |
| 2026-04-26 02:10 | 47.53806 | 61.08979 | 38077 ft | 442 kts | 330° |
| 2026-04-26 02:10 | 47.59462 | 61.05410 | 38094 ft | 443 kts | 330° |
| 2026-04-26 02:11 | 47.65139 | 61.01819 | 38094 ft | 443 kts | 330° |
| 2026-04-26 02:11 | 47.70810 | 60.98224 | 38088 ft | 444 kts | 330° |
| 2026-04-26 02:12 | 47.76502 | 60.94607 | 38088 ft | 444 kts | 330° |
| 2026-04-26 02:12 | 47.82190 | 60.90985 | 38084 ft | 445 kts | 330° |
| 2026-04-26 02:13 | 47.87880 | 60.87352 | 38085 ft | 445 kts | 330° |
| 2026-04-26 02:13 | 47.93541 | 60.83729 | 38082 ft | 445 kts | 330° |
| 2026-04-26 02:14 | 47.99234 | 60.80076 | 38097 ft | 445 kts | 330° |
| 2026-04-26 02:14 | 48.04925 | 60.76415 | 38085 ft | 445 kts | 330° |
| 2026-04-26 02:15 | 48.10616 | 60.72746 | 38084 ft | 446 kts | 330° |
| 2026-04-26 02:15 | 48.16316 | 60.69063 | 38088 ft | 446 kts | 330° |
| 2026-04-26 02:16 | 48.21979 | 60.65395 | 38102 ft | 447 kts | 330° |
| 2026-04-26 02:16 | 48.27687 | 60.61688 | 38095 ft | 447 kts | 330° |
| 2026-04-26 02:17 | 48.33400 | 60.57968 | 38084 ft | 447 kts | 330° |
| 2026-04-26 02:17 | 48.39099 | 60.54248 | 38114 ft | 446 kts | 330° |
| 2026-04-26 02:18 | 48.44795 | 60.50521 | 38089 ft | 446 kts | 330° |
| 2026-04-26 02:18 | 48.50492 | 60.46784 | 38087 ft | 446 kts | 330° |
| 2026-04-26 02:19 | 48.56172 | 60.43049 | 38084 ft | 445 kts | 330° |
| 2026-04-26 02:19 | 48.61851 | 60.39305 | 38105 ft | 445 kts | 330° |
| 2026-04-26 02:20 | 48.67522 | 60.35557 | 38085 ft | 445 kts | 330° |
| 2026-04-26 02:20 | 48.73192 | 60.31801 | 38083 ft | 445 kts | 330° |
| 2026-04-26 02:21 | 48.78858 | 60.28038 | 38079 ft | 444 kts | 330° |
| 2026-04-26 02:21 | 48.83564 | 60.24905 | 38092 ft | 444 kts | 330° |
| 2026-04-26 02:22 | 48.89229 | 60.21126 | 38083 ft | 444 kts | 330° |
| 2026-04-26 02:22 | 48.94892 | 60.17339 | 38092 ft | 445 kts | 330° |
| 2026-04-26 02:23 | 49.01475 | 60.12923 | 38089 ft | 446 kts | 330° |
| 2026-04-26 02:23 | 49.06235 | 60.09722 | 38089 ft | 447 kts | 330° |
| 2026-04-26 02:24 | 49.11926 | 60.05888 | 38089 ft | 447 kts | 330° |
| 2026-04-26 02:24 | 49.17631 | 60.02035 | 38079 ft | 448 kts | 330° |
| 2026-04-26 02:25 | 49.23333 | 59.98173 | 38093 ft | 448 kts | 331° |
| 2026-04-26 02:25 | 49.28997 | 59.94328 | 38083 ft | 448 kts | 331° |
| 2026-04-26 02:26 | 49.34691 | 59.90452 | 38065 ft | 447 kts | 330° |
| 2026-04-26 02:26 | 49.40372 | 59.86575 | 38068 ft | 446 kts | 330° |
| 2026-04-26 02:27 | 49.46075 | 59.82672 | 38081 ft | 446 kts | 331° |
| 2026-04-26 02:27 | 49.51731 | 59.78793 | 38062 ft | 445 kts | 331° |
| 2026-04-26 02:28 | 49.57384 | 59.74906 | 38057 ft | 444 kts | 331° |
| 2026-04-26 02:28 | 49.63027 | 59.71018 | 38061 ft | 444 kts | 331° |
| 2026-04-26 02:29 | 49.68636 | 59.67142 | 38064 ft | 445 kts | 331° |
| 2026-04-26 02:29 | 49.74283 | 59.63228 | 38060 ft | 445 kts | 331° |
| 2026-04-26 02:30 | 49.79940 | 59.59299 | 38053 ft | 446 kts | 331° |
| 2026-04-26 02:30 | 49.85603 | 59.55355 | 38053 ft | 446 kts | 331° |
| 2026-04-26 02:31 | 49.91261 | 59.51405 | 38054 ft | 446 kts | 330° |
| 2026-04-26 02:31 | 49.96927 | 59.47438 | 38038 ft | 446 kts | 330° |
| 2026-04-26 02:32 | 50.02585 | 59.43468 | 38047 ft | 447 kts | 330° |
| 2026-04-26 02:32 | 50.08253 | 59.39478 | 38043 ft | 447 kts | 330° |
| 2026-04-26 02:33 | 50.13926 | 59.35475 | 38041 ft | 448 kts | 330° |
| 2026-04-26 02:33 | 50.19605 | 59.31458 | 38039 ft | 448 kts | 330° |
| 2026-04-26 02:34 | 50.25279 | 59.27434 | 38031 ft | 448 kts | 330° |
| 2026-04-26 02:34 | 50.30911 | 59.23430 | 38058 ft | 447 kts | 330° |
| 2026-04-26 02:35 | 50.36614 | 59.19364 | 38033 ft | 447 kts | 330° |
| 2026-04-26 02:35 | 50.42232 | 59.15348 | 38023 ft | 446 kts | 330° |
| 2026-04-26 02:36 | 50.47866 | 59.11310 | 38021 ft | 445 kts | 330° |
| 2026-04-26 02:36 | 50.53527 | 59.07241 | 38031 ft | 444 kts | 330° |
| 2026-04-26 02:37 | 50.59137 | 59.03198 | 38015 ft | 443 kts | 330° |
| 2026-04-26 02:37 | 50.64702 | 58.99178 | 38005 ft | 442 kts | 330° |
| 2026-04-26 02:38 | 50.70296 | 58.95126 | 38001 ft | 441 kts | 330° |
| 2026-04-26 02:38 | 50.75876 | 58.91073 | 38016 ft | 442 kts | 330° |
| 2026-04-26 02:39 | 50.81463 | 58.87004 | 38003 ft | 443 kts | 330° |
| 2026-04-26 02:39 | 50.87072 | 58.82907 | 38000 ft | 444 kts | 330° |
| 2026-04-26 02:40 | 50.92691 | 58.78792 | 37996 ft | 445 kts | 330° |
| 2026-04-26 02:40 | 50.98326 | 58.74655 | 37991 ft | 447 kts | 331° |
| 2026-04-26 02:41 | 51.03936 | 58.70524 | 38007 ft | 447 kts | 331° |
| 2026-04-26 02:41 | 51.09586 | 58.66356 | 38002 ft | 448 kts | 330° |
| 2026-04-26 02:42 | 51.15246 | 58.62166 | 37994 ft | 447 kts | 330° |
| 2026-04-26 02:42 | 51.20885 | 58.57980 | 37997 ft | 447 kts | 331° |
| 2026-04-26 02:43 | 51.29323 | 58.51696 | 37977 ft | 446 kts | 331° |
| 2026-04-26 02:43 | 51.34940 | 58.47498 | 37951 ft | 445 kts | 330° |
| 2026-04-26 02:44 | 51.40542 | 58.43300 | 37957 ft | 444 kts | 330° |
| 2026-04-26 02:44 | 51.46154 | 58.39082 | 37956 ft | 445 kts | 331° |
| 2026-04-26 02:45 | 51.51759 | 58.34869 | 37945 ft | 446 kts | 332° |
| 2026-04-26 02:45 | 51.57531 | 58.31126 | 37951 ft | 448 kts | 335° |
| 2026-04-26 02:46 | 51.63374 | 58.27560 | 37942 ft | 449 kts | 335° |
| 2026-04-26 02:46 | 51.69213 | 58.23960 | 37939 ft | 450 kts | 335° |
| 2026-04-26 02:47 | 51.75061 | 58.20311 | 37933 ft | 450 kts | 335° |
| 2026-04-26 02:47 | 51.80905 | 58.16645 | 37928 ft | 450 kts | 335° |
| 2026-04-26 02:48 | 51.86747 | 58.12971 | 37928 ft | 450 kts | 335° |
| 2026-04-26 02:48 | 51.92571 | 58.09298 | 37928 ft | 449 kts | 335° |
| 2026-04-26 02:49 | 51.98391 | 58.05619 | 37923 ft | 448 kts | 335° |
| 2026-04-26 02:49 | 52.04201 | 58.01940 | 37913 ft | 447 kts | 335° |
| 2026-04-26 02:50 | 52.10005 | 57.98263 | 37917 ft | 446 kts | 335° |
| 2026-04-26 02:50 | 52.15784 | 57.94592 | 37911 ft | 446 kts | 335° |
| 2026-04-26 02:51 | 52.21559 | 57.90911 | 37914 ft | 446 kts | 335° |
| 2026-04-26 02:51 | 52.27341 | 57.87215 | 37910 ft | 447 kts | 335° |
| 2026-04-26 02:52 | 52.33139 | 57.83499 | 37915 ft | 448 kts | 335° |
| 2026-04-26 02:52 | 52.38950 | 57.79749 | 37904 ft | 449 kts | 335° |
| 2026-04-26 02:53 | 52.44767 | 57.75979 | 37901 ft | 449 kts | 335° |
| 2026-04-26 02:53 | 52.50586 | 57.72197 | 37887 ft | 449 kts | 335° |
| 2026-04-26 02:54 | 52.56389 | 57.68417 | 37886 ft | 448 kts | 334° |
| 2026-04-26 02:54 | 52.62171 | 57.64639 | 37885 ft | 447 kts | 334° |
| 2026-04-26 02:55 | 52.67937 | 57.60862 | 37883 ft | 445 kts | 334° |
| 2026-04-26 02:55 | 52.73680 | 57.57088 | 37877 ft | 443 kts | 334° |
| 2026-04-26 02:56 | 52.79391 | 57.53324 | 37880 ft | 441 kts | 334° |
| 2026-04-26 02:56 | 52.85049 | 57.49585 | 37885 ft | 440 kts | 334° |
| 2026-04-26 02:57 | 52.90727 | 57.45822 | 37874 ft | 439 kts | 334° |
| 2026-04-26 02:57 | 52.96404 | 57.42047 | 37873 ft | 439 kts | 334° |
| 2026-04-26 02:58 | 53.02077 | 57.38264 | 37887 ft | 440 kts | 334° |
| 2026-04-26 02:58 | 53.07759 | 57.34464 | 37894 ft | 442 kts | 334° |
| 2026-04-26 02:59 | 53.13478 | 57.30629 | 37874 ft | 444 kts | 334° |
| 2026-04-26 02:59 | 53.19213 | 57.26768 | 37867 ft | 445 kts | 334° |
| 2026-04-26 03:00 | 53.24950 | 57.22882 | 37874 ft | 445 kts | 334° |
| 2026-04-26 03:00 | 53.30686 | 57.18985 | 37891 ft | 445 kts | 333° |
| 2026-04-26 03:01 | 53.36411 | 57.15085 | 37871 ft | 444 kts | 333° |
| 2026-04-26 03:01 | 53.42133 | 57.11181 | 37874 ft | 443 kts | 333° |
| 2026-04-26 03:02 | 53.47845 | 57.07298 | 37866 ft | 442 kts | 333° |
| 2026-04-26 03:02 | 53.52577 | 57.04075 | 37868 ft | 441 kts | 333° |
| 2026-04-26 03:03 | 53.58250 | 57.00196 | 37873 ft | 440 kts | 333° |
| 2026-04-26 03:03 | 53.63913 | 56.96312 | 37874 ft | 439 kts | 333° |
| 2026-04-26 03:04 | 53.69573 | 56.92410 | 37869 ft | 438 kts | 333° |
| 2026-04-26 03:04 | 53.75212 | 56.88485 | 37875 ft | 438 kts | 333° |
| 2026-04-26 03:05 | 53.80852 | 56.84552 | 37891 ft | 440 kts | 333° |
| 2026-04-26 03:05 | 53.86536 | 56.80609 | 37859 ft | 442 kts | 334° |
| 2026-04-26 03:06 | 53.92248 | 56.76676 | 37876 ft | 444 kts | 333° |
| 2026-04-26 03:06 | 53.97967 | 56.72713 | 37859 ft | 444 kts | 333° |
| 2026-04-26 03:07 | 54.03689 | 56.68692 | 37882 ft | 445 kts | 333° |
| 2026-04-26 03:07 | 54.09424 | 56.64639 | 37862 ft | 445 kts | 333° |
| 2026-04-26 03:08 | 54.15107 | 56.60616 | 37860 ft | 445 kts | 333° |
| 2026-04-26 03:08 | 54.20864 | 56.56532 | 37855 ft | 445 kts | 333° |
| 2026-04-26 03:09 | 54.26577 | 56.52466 | 37854 ft | 445 kts | 333° |
| 2026-04-26 03:09 | 54.32287 | 56.48390 | 37859 ft | 444 kts | 333° |
| 2026-04-26 03:10 | 54.37995 | 56.44303 | 37851 ft | 444 kts | 333° |
| 2026-04-26 03:10 | 54.43664 | 56.40122 | 37848 ft | 442 kts | 329° |
| 2026-04-26 03:11 | 54.48857 | 56.34620 | 37859 ft | 436 kts | 321° |
| 2026-04-26 03:11 | 54.53837 | 56.28642 | 37849 ft | 436 kts | 322° |
| 2026-04-26 03:12 | 54.58810 | 56.22757 | 37855 ft | 436 kts | 322° |
| 2026-04-26 03:12 | 54.63848 | 56.16791 | 37856 ft | 437 kts | 322° |
| 2026-04-26 03:13 | 54.68816 | 56.10864 | 37856 ft | 437 kts | 322° |
| 2026-04-26 03:13 | 54.73855 | 56.04837 | 37876 ft | 438 kts | 322° |
| 2026-04-26 03:14 | 54.78838 | 55.98861 | 37856 ft | 439 kts | 322° |
| 2026-04-26 03:14 | 54.83892 | 55.92781 | 37841 ft | 439 kts | 322° |
| 2026-04-26 03:15 | 54.88911 | 55.86724 | 37835 ft | 439 kts | 322° |
| 2026-04-26 03:15 | 54.93885 | 55.80686 | 37831 ft | 439 kts | 321° |
| 2026-04-26 03:16 | 54.98893 | 55.74587 | 37836 ft | 439 kts | 321° |
| 2026-04-26 03:16 | 55.03896 | 55.68492 | 37828 ft | 439 kts | 322° |
| 2026-04-26 03:17 | 55.08908 | 55.62395 | 37829 ft | 438 kts | 322° |
| 2026-04-26 03:17 | 55.13904 | 55.56298 | 37828 ft | 438 kts | 321° |
| 2026-04-26 03:18 | 55.18897 | 55.50181 | 37847 ft | 438 kts | 321° |
| 2026-04-26 03:18 | 55.23889 | 55.44044 | 37831 ft | 438 kts | 321° |
| 2026-04-26 03:19 | 55.28873 | 55.37899 | 37824 ft | 437 kts | 321° |
| 2026-04-26 03:19 | 55.33845 | 55.31749 | 37824 ft | 437 kts | 321° |
| 2026-04-26 03:20 | 55.38816 | 55.25583 | 37827 ft | 437 kts | 321° |
| 2026-04-26 03:20 | 55.43751 | 55.19429 | 37831 ft | 438 kts | 321° |
| 2026-04-26 03:21 | 55.48712 | 55.13215 | 37819 ft | 438 kts | 321° |
| 2026-04-26 03:21 | 55.53678 | 55.06974 | 37818 ft | 438 kts | 321° |
| 2026-04-26 03:22 | 55.58647 | 55.00711 | 37807 ft | 439 kts | 321° |
| 2026-04-26 03:22 | 55.63612 | 54.94434 | 37831 ft | 439 kts | 321° |
| 2026-04-26 03:23 | 55.68590 | 54.88120 | 37816 ft | 440 kts | 321° |
| 2026-04-26 03:23 | 55.73570 | 54.81785 | 37818 ft | 440 kts | 321° |
| 2026-04-26 03:24 | 55.78545 | 54.75435 | 37815 ft | 441 kts | 321° |
| 2026-04-26 03:24 | 55.83523 | 54.69059 | 37810 ft | 441 kts | 321° |
| 2026-04-26 03:25 | 55.88499 | 54.62666 | 37819 ft | 441 kts | 321° |
| 2026-04-26 03:25 | 55.93475 | 54.56253 | 37805 ft | 441 kts | 321° |
| 2026-04-26 03:26 | 55.98455 | 54.49814 | 37808 ft | 441 kts | 321° |
| 2026-04-26 03:26 | 56.03428 | 54.43362 | 37808 ft | 441 kts | 321° |
| 2026-04-26 03:27 | 56.08392 | 54.36902 | 37823 ft | 441 kts | 321° |
| 2026-04-26 03:27 | 56.13410 | 54.30563 | 37806 ft | 442 kts | 323° |
| 2026-04-26 03:28 | 56.18565 | 54.24516 | 37798 ft | 442 kts | 323° |
| 2026-04-26 03:28 | 56.23707 | 54.18451 | 37798 ft | 442 kts | 323° |
| 2026-04-26 03:29 | 56.28818 | 54.12334 | 37797 ft | 441 kts | 323° |
| 2026-04-26 03:29 | 56.33925 | 54.06181 | 37807 ft | 442 kts | 323° |
| 2026-04-26 03:30 | 56.39037 | 54.00008 | 37794 ft | 442 kts | 323° |
| 2026-04-26 03:30 | 56.44141 | 53.93814 | 37792 ft | 442 kts | 323° |
| 2026-04-26 03:31 | 56.48374 | 53.88641 | 37799 ft | 441 kts | 323° |